• Join FlightAware (Why Join?)
  • Login
  • US Flag 
03:06PM EDT


 

Airport Tracker/Info


-or-


 

Live Flight TrackerFlight Track Log ✈ AAL963 ✈ 28-Apr-2013 ✈ KDFW - SBGR / GRU

Flight Track Log - Related Links

Times and Time Zones

All times are in EDT time to prevent confusion due to time zone crossing. See the AAL963 flight status page for this flight to view local times or setup timezone preferences in your user account.

Time Position Orientation Groundspeed Altitude Reporting Facility
EDT Latitude Longitude Course Direction KTS MPH feet Rate Location/Type
09:08PM 32.8540 -97.0510 180° South 188 216 2,200  Level FlightAware
09:08PM 32.8380 -97.0520 183° South 213 245 2,400 1,320 Climbing FlightAware
09:09PM 32.8120 -97.0520 180° South 233 268 3,100 1,920 Climbing FlightAware
09:09PM 32.7790 -97.0530 181° South 243 280 4,200 2,100 Climbing FlightAware
09:10PM 32.7450 -97.0530 180° South 255 293 5,200 2,040 Climbing FlightAware
09:10PM 32.7160 -97.0540 182° South 256 295 6,100 1,800 Climbing FlightAware
09:10PM 32.6780 -97.0550 181° South 272 313 6,900 1,800 Climbing FlightAware
09:11PM 32.6420 -97.0550 180° South 277 319 7,900 1,800 Climbing FlightAware
09:12PM 32.5890 -97.0430 169° South 294 338 9,000 1,800 Climbing FlightAware
09:12PM 32.5410 -97.0060 147° Southeast 303 349 10,300 1,080 Climbing FlightAware
09:13PM 32.4830 -96.9620 147° Southeast 356 410 10,600 660 Climbing FlightAware
09:14PM 32.4250 -96.9190 148° Southeast 388 447 11,300 1,620 Climbing FlightAware
09:14PM 32.3550 -96.8670 148° Southeast 400 460 12,900 1,920 Climbing FlightAware
09:15PM 32.2920 -96.8220 149° Southeast 419 482 14,100 2,760 Climbing FlightAware
09:16PM 32.2230 -96.7910 159° South 398 458 16,600 2,460 Climbing FlightAware
09:17PM 32.1400 -96.7600 162° South 422 486 17,600 1,620 Climbing FlightAware
09:17PM 32.1031 -96.7462 162° South 426 490 18,300 1,980 Climbing FlightAware ADS-B
09:17PM 32.0442 -96.7240 162° South 435 501 19,200 1,860 Climbing FlightAware ADS-B
09:18PM 31.9830 -96.7008 162° South 437 503 20,300 1,920 Climbing FlightAware ADS-B
09:18PM 31.9241 -96.6785 162° South 442 509 21,200 1,800 Climbing FlightAware ADS-B
09:19PM 31.8611 -96.6544 162° South 452 520 22,200 1,920 Climbing FlightAware ADS-B
09:19PM 31.8327 -96.6428 161° South 452 520 22,700 1,800 Climbing FlightAware ADS-B
09:19PM 31.8003 -96.6293 160° South 454 522 23,100 1,620 Climbing FlightAware ADS-B
09:20PM 31.7663 -96.6151 160° South 455 524 23,600 1,560 Climbing FlightAware ADS-B
09:20PM 31.7404 -96.6043 160° South 460 529 23,900 1,320 Climbing FlightAware ADS-B
09:20PM 31.7052 -96.5898 161° South 465 535 24,300 1,260 Climbing FlightAware ADS-B
09:20PM 31.6764 -96.5780 161° South 468 539 24,600 1,260 Climbing FlightAware ADS-B
09:21PM 31.6296 -96.5590 161° South 472 543 25,100 1,320 Climbing FlightAware ADS-B
09:21PM 31.6116 -96.5515 160° South 476 548 25,300 1,200 Climbing FlightAware ADS-B
09:21PM 31.5663 -96.5331 161° South 481 554 25,700 1,200 Climbing FlightAware ADS-B
09:21PM 31.5484 -96.5259 161° South 482 555 25,900 1,500 Climbing FlightAware ADS-B
09:22PM 31.4991 -96.5060 161° South 484 557 26,500 1,380 Climbing FlightAware ADS-B
09:22PM 31.4848 -96.5005 162° South 485 558 26,600 1,200 Climbing FlightAware ADS-B
09:22PM 31.4348 -96.4819 162° South 487 560 27,100 1,320 Climbing FlightAware ADS-B
09:22PM 31.4182 -96.4758 163° South 488 562 27,300 1,380 Climbing FlightAware ADS-B
09:23PM 31.3685 -96.4577 163° South 492 566 27,800 1,200 Climbing FlightAware ADS-B
09:23PM 31.3528 -96.4518 162° South 493 567 27,900 1,140 Climbing FlightAware ADS-B
09:23PM 31.3017 -96.4330 163° South 497 572 28,400 1,140 Climbing FlightAware ADS-B
09:23PM 31.2852 -96.4269 162° South 497 572 28,500 780 Climbing FlightAware ADS-B
09:24PM 31.2350 -96.4082 162° South 502 578 28,800 840 Climbing FlightAware ADS-B
09:24PM 31.2252 -96.4045 162° South 503 579 28,900 1,680 Climbing FlightAware ADS-B
09:24PM 31.2189 -96.4018 160° South 505 581 29,000 1,320 Climbing FlightAware ADS-B
09:24PM 31.2040 -96.3944 157° South 509 586 29,100 660 Climbing FlightAware ADS-B
09:24PM 31.1993 -96.3917 154° Southeast 510 587 29,100  Level FlightAware ADS-B
09:24PM 31.1933 -96.3880 152° Southeast 511 588 29,100 540 Level FlightAware ADS-B
09:24PM 31.1770 -96.3765 149° Southeast 516 594 29,200 1,080 Climbing FlightAware ADS-B
09:24PM 31.1711 -96.3717 145° Southeast 518 596 29,300 840 Climbing FlightAware ADS-B
09:24PM 31.1633 -96.3647 142° Southeast 520 598 29,300 840 Level FlightAware ADS-B
09:24PM 31.1585 -96.3600 140° Southeast 520 598 29,400 720 Climbing FlightAware ADS-B
09:25PM 31.1501 -96.3510 137° Southeast 522 601 29,400 840 Level FlightAware ADS-B
09:25PM 31.1461 -96.3466 137° Southeast 523 602 29,500 1,500 Climbing FlightAware ADS-B
09:25PM 31.1355 -96.3331 133° Southeast 525 604 29,600 960 Climbing FlightAware ADS-B
09:25PM 31.1004 -96.2781 127° Southeast 528 608 30,000 960 Climbing FlightAware ADS-B
09:25PM 31.0915 -96.2639 126° Southeast 528 608 30,100 1,560 Climbing FlightAware ADS-B
09:26PM 31.0572 -96.2077 125° Southeast 525 604 30,800 1,740 Climbing FlightAware ADS-B
09:26PM 31.0481 -96.1928 125° Southeast 524 603 31,000 1,260 Climbing FlightAware ADS-B
09:26PM 31.0132 -96.1354 125° Southeast 524 603 31,500 960 Climbing FlightAware ADS-B
09:26PM 31.0054 -96.1227 126° Southeast 526 605 31,500 600 Level FlightAware ADS-B
09:27PM 30.9702 -96.0652 126° Southeast 531 611 31,800 780 Climbing FlightAware ADS-B
09:27PM 30.9625 -96.0526 125° Southeast 532 612 31,900 960 Climbing FlightAware ADS-B
09:27PM 30.9273 -95.9954 126° Southeast 532 612 32,300 960 Climbing FlightAware ADS-B
09:27PM 30.9197 -95.9831 126° Southeast 531 611 32,400 1,260 Climbing FlightAware ADS-B
09:28PM 30.8816 -95.9215 126° Southeast 530 610 33,000 1,140 Climbing FlightAware ADS-B
09:28PM 30.8763 -95.9130 126° Southeast 529 609 33,000 960 Level FlightAware ADS-B
09:28PM 30.8383 -95.8517 126° Southeast 527 606 33,500 1,200 Climbing FlightAware ADS-B
09:28PM 30.8333 -95.8436 126° Southeast 528 608 33,600 780 Climbing FlightAware ADS-B
09:29PM 30.7950 -95.7820 126° Southeast 529 609 33,900 600 Climbing FlightAware ADS-B
09:29PM 30.7898 -95.7737 126° Southeast 530 610 33,900 360 Level FlightAware ADS-B
09:29PM 30.7508 -95.7112 126° Southeast 534 615 34,100 360 Climbing FlightAware ADS-B
09:29PM 30.7457 -95.7031 126° Southeast 534 615 34,100 780 Level FlightAware ADS-B
09:30PM 30.7071 -95.6411 126° Southeast 534 615 34,500 780 Climbing FlightAware ADS-B
09:30PM 30.7023 -95.6334 126° Southeast 535 616 34,500 600 Level FlightAware ADS-B
09:30PM 30.6632 -95.5709 126° Southeast 536 617 34,800 780 Climbing FlightAware ADS-B
09:30PM 30.6575 -95.5618 126° Southeast 536 617 34,900 360 Climbing FlightAware ADS-B
09:31PM 30.6193 -95.5007 126° Southeast 535 616 35,000 180 Climbing FlightAware ADS-B
09:31PM 30.6120 -95.4891 126° Southeast 535 616 35,000  Level FlightAware ADS-B
09:31PM 30.5726 -95.4260 126° Southeast 535 616 35,000  Level FlightAware ADS-B
09:31PM 30.5676 -95.4181 126° Southeast 533 613 35,000  Level FlightAware ADS-B
09:32PM 30.5284 -95.3557 126° Southeast 534 615 35,000  Level FlightAware ADS-B
09:32PM 30.5230 -95.3471 126° Southeast 534 615 35,000  Level FlightAware ADS-B
09:32PM 30.4844 -95.2858 126° Southeast 535 616 35,000  Level FlightAware ADS-B
09:32PM 30.4793 -95.2777 126° Southeast 535 616 35,000  Level FlightAware ADS-B
09:33PM 30.4406 -95.2162 126° Southeast 537 618 35,000  Level FlightAware ADS-B
09:33PM 30.4352 -95.2076 126° Southeast 537 618 35,000  Level FlightAware ADS-B
09:33PM 30.3964 -95.1462 126° Southeast 540 621 35,000  Level FlightAware ADS-B
09:33PM 30.3905 -95.1369 126° Southeast 540 621 35,000  Level FlightAware ADS-B
09:34PM 30.3508 -95.0742 126° Southeast 541 623 35,000  Level FlightAware ADS-B
09:34PM 30.3452 -95.0653 126° Southeast 540 621 35,000  Level FlightAware ADS-B
09:34PM 30.3065 -95.0041 126° Southeast 542 624 35,000  Level FlightAware ADS-B
09:34PM 30.2972 -94.9894 126° Southeast 542 624 35,000  Level FlightAware ADS-B
09:35PM 30.2619 -94.9338 126° Southeast 542 624 35,000  Level FlightAware ADS-B
09:35PM 30.2524 -94.9189 126° Southeast 542 624 35,000  Level FlightAware ADS-B
09:35PM 30.2174 -94.8637 126° Southeast 543 625 35,000  Level FlightAware ADS-B
09:35PM 30.2051 -94.8444 126° Southeast 543 625 35,000  Level FlightAware ADS-B
09:36PM 30.1726 -94.7933 126° Southeast 543 625 35,000  Level FlightAware ADS-B
09:36PM 30.1566 -94.7683 127° Southeast 542 624 35,000  Level FlightAware ADS-B
09:36PM 30.1280 -94.7234 126° Southeast 542 624 35,000  Level FlightAware ADS-B
09:36PM 30.1097 -94.6947 126° Southeast 542 624 35,000  Level FlightAware ADS-B
09:37PM 30.0828 -94.6527 127° Southeast 542 624 35,000  Level FlightAware ADS-B
09:37PM 30.0603 -94.6175 126° Southeast 542 624 35,000  Level FlightAware ADS-B
09:37PM 30.0377 -94.5822 126° Southeast 541 623 35,000  Level FlightAware ADS-B
09:38PM 30.0151 -94.5469 126° Southeast 542 624 35,000  Level FlightAware ADS-B
09:38PM 29.9927 -94.5120 127° Southeast 541 623 35,000  Level FlightAware ADS-B
09:38PM 29.9696 -94.4760 127° Southeast 543 625 35,000  Level FlightAware ADS-B
09:38PM 29.9475 -94.4416 127° Southeast 543 625 35,000  Level FlightAware ADS-B
09:39PM 29.9243 -94.4055 127° Southeast 543 625 35,000  Level FlightAware ADS-B
09:39PM 29.9023 -94.3713 127° Southeast 543 625 35,000  Level FlightAware ADS-B
09:39PM 29.8792 -94.3356 127° Southeast 544 626 35,000  Level FlightAware ADS-B
09:39PM 29.8568 -94.3007 126° Southeast 544 626 35,000  Level FlightAware ADS-B
09:40PM 29.8338 -94.2652 127° Southeast 543 625 35,000  Level FlightAware ADS-B
09:40PM 29.8108 -94.2294 127° Southeast 543 625 35,000  Level FlightAware ADS-B
09:40PM 29.7888 -94.1954 127° Southeast 543 625 35,000  Level FlightAware ADS-B
09:40PM 29.7654 -94.1593 127° Southeast 542 624 35,000  Level FlightAware ADS-B
09:41PM 29.7427 -94.1242 127° Southeast 542 624 35,000  Level FlightAware ADS-B
09:41PM 29.7211 -94.0911 127° Southeast 540 621 35,000  Level FlightAware ADS-B
09:41PM 29.7186 -94.0874 128° Southeast 539 620 35,000  Level FlightAware ADS-B
09:41PM 29.6938 -94.0546 131° Southeast 532 612 35,000  Level FlightAware ADS-B
09:41PM 29.6927 -94.0534 137° Southeast 532 612 35,000  Level FlightAware ADS-B
09:41PM 29.6651 -94.0225 136° Southeast 524 603 35,000  Level FlightAware ADS-B
09:42PM 29.6379 -93.9965 140° Southeast 519 597 35,000  Level FlightAware ADS-B
09:42PM 29.6073 -93.9692 142° Southeast 516 594 35,000  Level FlightAware ADS-B
09:42PM 29.5619 -93.9301 143° Southeast 515 593 35,000  Level FlightAware ADS-B
09:42PM 29.5499 -93.9199 144° Southeast 513 590 35,000  Level FlightAware ADS-B
09:43PM 29.4916 -93.8705 144° Southeast 513 590 35,000  Level FlightAware ADS-B
09:43PM 29.4339 -93.8216 144° Southeast 513 590 35,000  Level FlightAware ADS-B
09:44PM 29.3750 -93.7717 144° Southeast 515 593 35,000  Level FlightAware ADS-B
09:45PM 29.3019 -93.7096 143° Southeast 515 593 35,000  Level FlightAware ADS-B
09:45PM 29.2404 -93.6573 143° Southeast 517 595 35,000  Level FlightAware ADS-B
09:46PM 29.1780 -93.6045 144° Southeast 518 596 35,000  Level FlightAware ADS-B
09:46PM 29.1193 -93.5548 144° Southeast 520 598 35,000  Level FlightAware ADS-B
09:47PM 29.0607 -93.5052 143° Southeast 520 598 35,000  Level FlightAware ADS-B
09:47PM 28.9849 -93.4413 144° Southeast 520 598 35,000  Level FlightAware ADS-B
09:48PM 28.9260 -93.3918 144° Southeast 521 600 35,000  Level FlightAware ADS-B
09:48PM 28.8639 -93.3395 144° Southeast 521 600 35,000 -120 Level FlightAware ADS-B
09:49PM 28.8481 -93.3250 144° Southeast 523 602 34,900 -120 Descending Houston Center
09:50PM 28.7083 -93.2081 144° Southeast 520 598 34,900  Level Houston Center
09:51PM 28.5931 -93.1108 143° Southeast 517 595 34,900  Level Houston Center
09:52PM 28.4775 -93.0156 144° Southeast 515 593 34,900  Level Houston Center
09:53PM 28.3631 -92.9189 143° Southeast 513 590 34,900  Level Houston Center
09:54PM 28.2478 -92.8236 144° Southeast 514 592 34,900  Level Houston Center
09:55PM 28.1311 -92.7275 144° Southeast 518 596 34,900  Level Houston Center
09:56PM 28.0156 -92.6306 143° Southeast 518 596 34,900  Level Houston Center
09:57PM 27.8969 -92.5339 144° Southeast 524 603 34,900  Level Houston Center
09:58PM 27.7778 -92.4381 145° Southeast 527 606 34,900  Level Houston Center
09:59PM 27.6581 -92.3414 144° Southeast 528 608 34,900  Level Houston Center
10:00PM 27.5403 -92.2467 144° Southeast 522 601 35,000  Climbing Houston Center
10:01PM 27.3992 -92.1314 144° Southeast 522 601 34,900  Descending Houston Center
10:02PM 27.2811 -92.0342 144° Southeast 526 605 35,000  Climbing Houston Center
10:03PM 27.1617 -91.9381 144° Southeast 526 605 35,000  Level Houston Center
10:05PM 26.9905 -91.7931 143° Southeast  Level FlightAware Approximate
10:12PM 26.2084 -91.1752 146° Southeast  Level FlightAware Approximate
10:13PM 26.0955 -91.0892 146° Southeast  Level FlightAware Approximate
10:14PM 25.9827 -91.0030 145° Southeast  Level FlightAware Approximate
10:15PM 25.8711 -90.9150 145° Southeast  Level FlightAware Approximate
10:16PM 25.7595 -90.8272 145° Southeast  Level FlightAware Approximate
10:17PM 25.6478 -90.7395 145° Southeast  Level FlightAware Approximate
10:18PM 25.5361 -90.6520 145° Southeast  Level FlightAware Approximate
10:19PM 25.4243 -90.5647 145° Southeast  Level FlightAware Approximate
10:20PM 25.3125 -90.4775 145° Southeast  Level FlightAware Approximate
10:21PM 25.2006 -90.3904 145° Southeast  Level FlightAware Approximate
10:22PM 25.0886 -90.3036 145° Southeast  Level FlightAware Approximate
10:23PM 24.9767 -90.2169 145° Southeast  Level FlightAware Approximate
10:24PM 24.8646 -90.1303 145° Southeast  Level FlightAware Approximate
10:25PM 24.7525 -90.0439 145° Southeast  Level FlightAware Approximate
10:26PM 24.6404 -89.9577 145° Southeast  Level FlightAware Approximate
10:27PM 24.5282 -89.8716 145° Southeast  Level FlightAware Approximate
10:28PM 24.4442 -89.7568 119° Southeast  Level FlightAware Approximate
10:29PM 24.3771 -89.6259 119° Southeast  Level FlightAware Approximate
10:30PM 24.3099 -89.4952 119° Southeast  Level FlightAware Approximate
10:31PM 24.2425 -89.3645 119° Southeast  Level FlightAware Approximate
10:32PM 24.1753 -89.2339 119° Southeast  Level FlightAware Approximate
10:33PM 24.1096 -89.1024 119° Southeast  Level FlightAware Approximate
10:34PM 24.0439 -88.9710 119° Southeast  Level FlightAware Approximate
10:35PM 23.9750 -88.8416 120° Southeast  Level FlightAware Approximate
10:36PM 23.9062 -88.7123 119° Southeast  Level FlightAware Approximate
10:37PM 23.8406 -88.5810 119° Southeast  Level FlightAware Approximate
10:38PM 23.7735 -88.4507 120° Southeast  Level FlightAware Approximate
10:39PM 23.7041 -88.3219 120° Southeast  Level FlightAware Approximate
10:40PM 23.6358 -88.1926 120° Southeast  Level FlightAware Approximate
10:41PM 23.5678 -88.0630 120° Southeast  Level FlightAware Approximate
10:42PM 23.4996 -87.9336 120° Southeast  Level FlightAware Approximate
10:43PM 23.4314 -87.8044 120° Southeast  Level FlightAware Approximate
10:44PM 23.3631 -87.6752 120° Southeast  Level FlightAware Approximate
10:45PM 23.2946 -87.5462 120° Southeast  Level FlightAware Approximate
10:46PM 23.2261 -87.4174 120° Southeast  Level FlightAware Approximate
10:47PM 23.1575 -87.2887 120° Southeast  Level FlightAware Approximate
10:48PM 23.0887 -87.1600 120° Southeast  Level FlightAware Approximate
10:49PM 23.0255 -87.0282 117° Southeast  Level FlightAware Approximate
10:50PM 22.9626 -86.8962 117° Southeast  Level FlightAware Approximate
10:51PM 22.8997 -86.7643 117° Southeast  Level FlightAware Approximate
10:52PM 22.8370 -86.6324 117° Southeast  Level FlightAware Approximate
10:53PM 22.7742 -86.5006 117° Southeast  Level FlightAware Approximate
10:54PM 22.6724 -86.4143 157° South  Level FlightAware Approximate
10:55PM 22.5465 -86.3563 157° South  Level FlightAware Approximate
10:56PM 22.4206 -86.2985 157° South  Level FlightAware Approximate
10:57PM 22.2947 -86.2408 157° South  Level FlightAware Approximate
10:58PM 22.1687 -86.1831 157° South  Level FlightAware Approximate
10:59PM 22.0427 -86.1256 157° South  Level FlightAware Approximate
11:00PM 21.9166 -86.0684 157° South  Level FlightAware Approximate
11:01PM 21.7903 -86.0117 157° South  Level FlightAware Approximate
11:02PM 21.6640 -85.9551 157° South  Level FlightAware Approximate
11:03PM 21.5377 -85.8987 157° South  Level FlightAware Approximate
11:04PM 21.4114 -85.8423 157° South  Level FlightAware Approximate
11:05PM 21.2845 -85.7859 157° South  Level FlightAware Approximate
11:06PM 21.1577 -85.7295 157° South  Level FlightAware Approximate
11:07PM 21.0309 -85.6733 158° South  Level FlightAware Approximate
11:08PM 20.9040 -85.6171 158° South  Level FlightAware Approximate
11:09PM 20.7771 -85.5610 158° South  Level FlightAware Approximate
11:10PM 20.6502 -85.5051 158° South  Level FlightAware Approximate
11:11PM 20.5233 -85.4492 158° South  Level FlightAware Approximate
11:12PM 20.3963 -85.3934 158° South  Level FlightAware Approximate
11:13PM 20.2694 -85.3377 158° South  Level FlightAware Approximate
11:14PM 20.1615 -85.2612 104° East  Level FlightAware Approximate
11:15PM 20.1283 -85.1193 104° East  Level FlightAware Approximate
11:16PM 20.0950 -84.9775 104° East  Level FlightAware Approximate
11:17PM 20.0615 -84.8357 104° East  Level FlightAware Approximate
11:18PM 20.0279 -84.6940 104° East  Level FlightAware Approximate
11:19PM 19.9939 -84.5525 104° East  Level FlightAware Approximate
11:20PM 19.9598 -84.4110 104° East  Level FlightAware Approximate
11:21PM 19.9255 -84.2696 104° East  Level FlightAware Approximate
11:22PM 19.8912 -84.1282 104° East  Level FlightAware Approximate
11:23PM 19.8567 -83.9869 105° East  Level FlightAware Approximate
11:24PM 19.8221 -83.8457 105° East  Level FlightAware Approximate
11:25PM 19.7874 -83.7045 105° East  Level FlightAware Approximate
11:26PM 19.7526 -83.5634 105° East  Level FlightAware Approximate
11:27PM 19.7177 -83.4223 105° East  Level FlightAware Approximate
11:28PM 19.6827 -83.2813 105° East  Level FlightAware Approximate
11:29PM 19.6476 -83.1404 105° East  Level FlightAware Approximate
11:30PM 19.6117 -82.9997 105° East  Level FlightAware Approximate
11:31PM 19.5758 -82.8590 105° East  Level FlightAware Approximate
11:32PM 19.5398 -82.7185 105° East  Level FlightAware Approximate
11:33PM 19.5036 -82.5779 105° East  Level FlightAware Approximate
11:34PM 19.4674 -82.4375 105° East  Level FlightAware Approximate
11:35PM 19.4310 -82.2971 105° East  Level FlightAware Approximate
11:36PM 19.3945 -82.1568 105° East  Level FlightAware Approximate
11:37PM 19.3580 -82.0165 105° East  Level FlightAware Approximate
11:38PM 19.3217 -81.8762 105° East  Level FlightAware Approximate
11:39PM 19.2853 -81.7359 105° East  Level FlightAware Approximate
11:40PM 19.2488 -81.5957 105° East  Level FlightAware Approximate
11:41PM 19.2122 -81.4556 105° East  Level FlightAware Approximate
11:42PM 19.1754 -81.3155 105° East  Level FlightAware Approximate
11:43PM 19.1386 -81.1755 106° East  Level FlightAware Approximate
11:44PM 19.1017 -81.0356 106° East  Level FlightAware Approximate
11:45PM 19.0646 -80.8957 106° East  Level FlightAware Approximate
11:46PM 19.0275 -80.7559 106° East  Level FlightAware Approximate
11:47PM 18.9902 -80.6161 106° East  Level FlightAware Approximate
11:48PM 18.9529 -80.4764 106° East  Level FlightAware Approximate
11:49PM 18.9154 -80.3368 106° East  Level FlightAware Approximate
11:50PM 18.8778 -80.1973 106° East  Level FlightAware Approximate
11:51PM 18.8402 -80.0577 106° East  Level FlightAware Approximate
11:52PM 18.8024 -79.9183 106° East  Level FlightAware Approximate
11:53PM 18.7645 -79.7789 106° East  Level FlightAware Approximate
11:54PM 18.7265 -79.6396 106° East  Level FlightAware Approximate
11:55PM 18.6885 -79.5004 106° East  Level FlightAware Approximate
11:56PM 18.6503 -79.3612 106° East  Level FlightAware Approximate
11:57PM 18.6120 -79.2221 106° East  Level FlightAware Approximate
11:58PM 18.5736 -79.0830 106° East  Level FlightAware Approximate
11:59PM 18.5351 -78.9440 106° East  Level FlightAware Approximate
12:00AM 18.4965 -78.8051 106° East  Level FlightAware Approximate
12:01AM 18.4578 -78.6662 106° East  Level FlightAware Approximate
12:02AM 18.4190 -78.5274 106° East  Level FlightAware Approximate
12:03AM 18.3801 -78.3886 106° East  Level FlightAware Approximate
12:04AM 18.3411 -78.2499 106° East  Level FlightAware Approximate
12:05AM 18.3020 -78.1113 107° East  Level FlightAware Approximate
12:06AM 18.2628 -77.9727 107° East  Level FlightAware Approximate
12:07AM 18.2235 -77.8342 107° East  Level FlightAware Approximate
12:08AM 18.1841 -77.6958 107° East  Level FlightAware Approximate
12:09AM 18.1446 -77.5574 107° East  Level FlightAware Approximate
12:10AM 18.1050 -77.4191 107° East  Level FlightAware Approximate
12:11AM 18.0653 -77.2809 107° East  Level FlightAware Approximate
12:12AM 18.0255 -77.1427 107° East  Level FlightAware Approximate
12:13AM 17.9856 -77.0045 107° East  Level FlightAware Approximate
12:14AM 17.9457 -76.8665 107° East  Level FlightAware Approximate
12:15AM 17.8930 -76.7354 128° Southeast  Level FlightAware Approximate
12:16AM 17.8076 -76.6225 128° Southeast  Level FlightAware Approximate
12:17AM 17.7221 -76.5097 128° Southeast  Level FlightAware Approximate
12:18AM 17.6366 -76.3970 129° Southeast  Level FlightAware Approximate
12:19AM 17.5510 -76.2844 129° Southeast  Level FlightAware Approximate
12:20AM 17.4653 -76.1719 129° Southeast  Level FlightAware Approximate
12:21AM 17.3796 -76.0595 129° Southeast  Level FlightAware Approximate
12:22AM 17.2938 -75.9473 129° Southeast  Level FlightAware Approximate
12:23AM 17.2079 -75.8351 129° Southeast  Level FlightAware Approximate
12:24AM 17.1220 -75.7231 129° Southeast  Level FlightAware Approximate
12:25AM 17.0360 -75.6111 129° Southeast  Level FlightAware Approximate
12:26AM 16.9499 -75.4992 129° Southeast  Level FlightAware Approximate
12:27AM 16.8638 -75.3875 129° Southeast  Level FlightAware Approximate
12:28AM 16.7777 -75.2758 129° Southeast  Level FlightAware Approximate
12:29AM 16.6914 -75.1643 129° Southeast  Level FlightAware Approximate
12:30AM 16.6052 -75.0528 129° Southeast  Level FlightAware Approximate
12:31AM 16.5188 -74.9415 129° Southeast  Level FlightAware Approximate
12:32AM 16.4324 -74.8302 129° Southeast  Level FlightAware Approximate
12:33AM 16.3459 -74.7191 129° Southeast  Level FlightAware Approximate
12:34AM 16.2594 -74.6080 129° Southeast  Level FlightAware Approximate
12:35AM 16.1728 -74.4971 129° Southeast  Level FlightAware Approximate
12:36AM 16.0862 -74.3862 129° Southeast  Level FlightAware Approximate
12:37AM 15.9995 -74.2755 129° Southeast  Level FlightAware Approximate
12:38AM 15.9128 -74.1648 129° Southeast  Level FlightAware Approximate
12:39AM 15.8259 -74.0542 129° Southeast  Level FlightAware Approximate
12:40AM 15.7391 -73.9438 129° Southeast  Level FlightAware Approximate
12:41AM 15.6521 -73.8334 129° Southeast  Level FlightAware Approximate
12:42AM 15.5651 -73.7232 129° Southeast  Level FlightAware Approximate
12:43AM 15.4781 -73.6130 129° Southeast  Level FlightAware Approximate
12:44AM 15.3910 -73.5029 129° Southeast  Level FlightAware Approximate
12:45AM 15.3038 -73.3929 129° Southeast  Level FlightAware Approximate
12:46AM 15.2166 -73.2831 129° Southeast  Level FlightAware Approximate
12:47AM 15.1293 -73.1732 129° Southeast  Level FlightAware Approximate
12:48AM 15.0420 -73.0635 129° Southeast  Level FlightAware Approximate
12:49AM 14.9546 -72.9539 130° Southeast  Level FlightAware Approximate
12:50AM 14.8671 -72.8444 130° Southeast  Level FlightAware Approximate
12:51AM 14.7796 -72.7349 130° Southeast  Level FlightAware Approximate
12:52AM 14.6921 -72.6256 130° Southeast  Level FlightAware Approximate
12:53AM 14.6045 -72.5163 130° Southeast  Level FlightAware Approximate
12:54AM 14.5169 -72.4072 130° Southeast  Level FlightAware Approximate
12:55AM 14.4292 -72.2981 130° Southeast  Level FlightAware Approximate
12:56AM 14.3414 -72.1891 130° Southeast  Level FlightAware Approximate
12:57AM 14.2537 -72.0801 130° Southeast  Level FlightAware Approximate
12:58AM 14.1658 -71.9713 130° Southeast  Level FlightAware Approximate
12:59AM 14.0779 -71.8626 130° Southeast  Level FlightAware Approximate
01:00AM 13.9900 -71.7539 130° Southeast  Level FlightAware Approximate
01:01AM 13.9020 -71.6453 130° Southeast  Level FlightAware Approximate
01:02AM 13.8140 -71.5368 130° Southeast  Level FlightAware Approximate
01:03AM 13.7259 -71.4284 130° Southeast  Level FlightAware Approximate
01:04AM 13.6378 -71.3201 130° Southeast  Level FlightAware Approximate
01:05AM 13.5496 -71.2118 130° Southeast  Level FlightAware Approximate
01:06AM 13.4614 -71.1036 130° Southeast  Level FlightAware Approximate
01:07AM 13.3731 -70.9955 130° Southeast  Level FlightAware Approximate
01:08AM 13.2848 -70.8875 130° Southeast  Level FlightAware Approximate
01:09AM 13.1964 -70.7795 130° Southeast  Level FlightAware Approximate
01:10AM 13.1080 -70.6717 130° Southeast  Level FlightAware Approximate
01:11AM 13.0196 -70.5639 130° Southeast  Level FlightAware Approximate
01:12AM 12.9311 -70.4562 130° Southeast  Level FlightAware Approximate
01:13AM 12.8426 -70.3486 130° Southeast  Level FlightAware Approximate
01:14AM 12.7540 -70.2410 130° Southeast  Level FlightAware Approximate
01:15AM 12.6654 -70.1335 130° Southeast  Level FlightAware Approximate
01:16AM 12.5767 -70.0261 130° Southeast  Level FlightAware Approximate
01:17AM 12.4939 -69.9154 109° East  Level FlightAware Approximate
01:18AM 12.4491 -69.7825 109° East  Level FlightAware Approximate
01:19AM 12.4041 -69.6494 109° East  Level FlightAware Approximate
01:20AM 12.3590 -69.5164 109° East  Level FlightAware Approximate
01:21AM 12.3139 -69.3834 109° East  Level FlightAware Approximate
01:22AM 12.2687 -69.2505 109° East  Level FlightAware Approximate
01:23AM 12.2234 -69.1176 109° East  Level FlightAware Approximate
01:24AM 12.1735 -68.9873 128° Southeast  Level FlightAware Approximate
01:25AM 12.0880 -68.8771 128° Southeast  Level FlightAware Approximate
01:26AM 12.0024 -68.7671 128° Southeast  Level FlightAware Approximate
01:27AM 11.9168 -68.6570 128° Southeast  Level FlightAware Approximate
01:28AM 11.8312 -68.5471 129° Southeast  Level FlightAware Approximate
01:29AM 11.7455 -68.4372 129° Southeast  Level FlightAware Approximate
01:30AM 11.6597 -68.3274 129° Southeast  Level FlightAware Approximate
01:31AM 11.5740 -68.2176 129° Southeast  Level FlightAware Approximate
01:32AM 11.4881 -68.1079 129° Southeast  Level FlightAware Approximate
01:33AM 11.4023 -67.9983 129° Southeast  Level FlightAware Approximate
01:34AM 11.3162 -67.8889 129° Southeast  Level FlightAware Approximate
01:35AM 11.2300 -67.7796 129° Southeast  Level FlightAware Approximate
01:36AM 11.1439 -67.6704 129° Southeast  Level FlightAware Approximate
01:37AM 11.0577 -67.5612 129° Southeast  Level FlightAware Approximate
01:38AM 10.9714 -67.4520 129° Southeast  Level FlightAware Approximate
01:39AM 10.8851 -67.3430 129° Southeast  Level FlightAware Approximate
01:40AM 10.7988 -67.2339 129° Southeast  Level FlightAware Approximate
01:41AM 10.7124 -67.1250 129° Southeast  Level FlightAware Approximate
01:42AM 10.6260 -67.0161 129° Southeast  Level FlightAware Approximate
01:43AM 10.5184 -66.9317 148° Southeast  Level FlightAware Approximate
01:44AM 10.4016 -66.8579 148° Southeast  Level FlightAware Approximate
01:45AM 10.2847 -66.7842 148° Southeast  Level FlightAware Approximate
01:46AM 10.2205 -66.6609 118° Southeast  Level FlightAware Approximate
01:47AM 10.1568 -66.5370 118° Southeast  Level FlightAware Approximate
01:48AM 10.0932 -66.4132 118° Southeast  Level FlightAware Approximate
01:49AM 10.0294 -66.2894 118° Southeast  Level FlightAware Approximate
01:50AM 9.9656 -66.1657 118° Southeast  Level FlightAware Approximate
01:51AM 9.9018 -66.0420 118° Southeast  Level FlightAware Approximate
01:52AM 9.8379 -65.9184 118° Southeast  Level FlightAware Approximate
01:53AM 9.7740 -65.7948 118° Southeast  Level FlightAware Approximate
01:54AM 9.7100 -65.6713 118° Southeast  Level FlightAware Approximate
01:55AM 9.6460 -65.5478 118° Southeast  Level FlightAware Approximate
01:56AM 9.5820 -65.4244 118° Southeast  Level FlightAware Approximate
01:57AM 9.5178 -65.3010 118° Southeast  Level FlightAware Approximate
01:58AM 9.4199 -65.2074 144° Southeast  Level FlightAware Approximate
01:59AM 9.3088 -65.1252 144° Southeast  Level FlightAware Approximate
02:00AM 9.1976 -65.0431 144° Southeast  Level FlightAware Approximate
02:01AM 9.0865 -64.9610 144° Southeast  Level FlightAware Approximate
02:02AM 8.9753 -64.8790 144° Southeast  Level FlightAware Approximate
02:03AM 8.8642 -64.7971 144° Southeast  Level FlightAware Approximate
02:04AM 8.7530 -64.7152 144° Southeast  Level FlightAware Approximate
02:05AM 8.6418 -64.6333 144° Southeast  Level FlightAware Approximate
02:06AM 8.5305 -64.5515 144° Southeast  Level FlightAware Approximate
02:07AM 8.4193 -64.4698 144° Southeast  Level FlightAware Approximate
02:08AM 8.3080 -64.3881 144° Southeast  Level FlightAware Approximate
02:09AM 8.1970 -64.3065 144° Southeast  Level FlightAware Approximate
02:10AM 8.0859 -64.2251 144° Southeast  Level FlightAware Approximate
02:11AM 7.9748 -64.1436 144° Southeast  Level FlightAware Approximate
02:12AM 7.8636 -64.0623 144° Southeast  Level FlightAware Approximate
02:13AM 7.7525 -63.9809 144° Southeast  Level FlightAware Approximate
02:14AM 7.6413 -63.8996 144° Southeast  Level FlightAware Approximate
02:15AM 7.5302 -63.8184 144° Southeast  Level FlightAware Approximate
02:16AM 7.4190 -63.7371 144° Southeast  Level FlightAware Approximate
02:17AM 7.3078 -63.6560 144° Southeast  Level FlightAware Approximate
02:18AM 7.1965 -63.5748 144° Southeast  Level FlightAware Approximate
02:19AM 7.0853 -63.4938 144° Southeast  Level FlightAware Approximate
02:20AM 6.9741 -63.4127 144° Southeast  Level FlightAware Approximate
02:21AM 6.8628 -63.3317 144° Southeast  Level FlightAware Approximate
02:22AM 6.7516 -63.2507 144° Southeast  Level FlightAware Approximate
02:23AM 6.6403 -63.1698 144° Southeast  Level FlightAware Approximate
02:24AM 6.5290 -63.0889 144° Southeast  Level FlightAware Approximate
02:25AM 6.4177 -63.0080 144° Southeast  Level FlightAware Approximate
02:26AM 6.3063 -62.9272 144° Southeast  Level FlightAware Approximate
02:27AM 6.1948 -62.8466 147° Southeast  Level FlightAware Approximate
02:28AM 6.0795 -62.7716 147° Southeast  Level FlightAware Approximate
02:29AM 5.9643 -62.6967 147° Southeast  Level FlightAware Approximate
02:30AM 5.8490 -62.6217 147° Southeast  Level FlightAware Approximate
02:31AM 5.7337 -62.5468 147° Southeast  Level FlightAware Approximate
02:32AM 5.6184 -62.4720 147° Southeast  Level FlightAware Approximate
02:33AM 5.5030 -62.3971 147° Southeast  Level FlightAware Approximate
02:34AM 5.3877 -62.3223 147° Southeast  Level FlightAware Approximate
02:35AM 5.2724 -62.2475 147° Southeast  Level FlightAware Approximate
02:36AM 5.1571 -62.1727 147° Southeast  Level FlightAware Approximate
02:37AM 5.0417 -62.0980 147° Southeast  Level FlightAware Approximate
02:38AM 4.9263 -62.0233 147° Southeast  Level FlightAware Approximate
02:39AM 4.8110 -61.9486 147° Southeast  Level FlightAware Approximate
02:40AM 4.6956 -61.8740 147° Southeast  Level FlightAware Approximate
02:41AM 4.5802 -61.7993 147° Southeast  Level FlightAware Approximate
02:42AM 4.4648 -61.7247 147° Southeast  Level FlightAware Approximate
02:43AM 4.3494 -61.6502 147° Southeast  Level FlightAware Approximate
02:44AM 4.2340 -61.5756 147° Southeast  Level FlightAware Approximate
02:45AM 4.1186 -61.5010 147° Southeast  Level FlightAware Approximate
02:46AM 4.0032 -61.4265 147° Southeast  Level FlightAware Approximate
02:47AM 3.8877 -61.3521 147° Southeast  Level FlightAware Approximate
02:48AM 3.7723 -61.2776 147° Southeast  Level FlightAware Approximate
02:49AM 3.6569 -61.2031 147° Southeast  Level FlightAware Approximate
02:50AM 3.5414 -61.1287 147° Southeast  Level FlightAware Approximate
02:51AM 3.4260 -61.0543 147° Southeast  Level FlightAware Approximate
02:52AM 3.3105 -60.9799 147° Southeast  Level FlightAware Approximate
02:53AM 3.1951 -60.9055 147° Southeast  Level FlightAware Approximate
02:54AM 3.0796 -60.8311 147° Southeast  Level FlightAware Approximate
02:55AM 2.9641 -60.7568 147° Southeast  Level FlightAware Approximate
02:56AM 2.8485 -60.6826 153° Southeast  Level FlightAware Approximate
02:57AM 2.7263 -60.6200 153° Southeast  Level FlightAware Approximate
02:58AM 2.6041 -60.5574 153° Southeast  Level FlightAware Approximate
02:59AM 2.4818 -60.4949 153° Southeast  Level FlightAware Approximate
03:00AM 2.3596 -60.4324 153° Southeast  Level FlightAware Approximate
03:01AM 2.2373 -60.3699 153° Southeast  Level FlightAware Approximate
03:02AM 2.1151 -60.3073 153° Southeast  Level FlightAware Approximate
03:03AM 1.9928 -60.2449 153° Southeast  Level FlightAware Approximate
03:04AM 1.8706 -60.1824 153° Southeast  Level FlightAware Approximate
03:05AM 1.7483 -60.1199 153° Southeast  Level FlightAware Approximate
03:06AM 1.6260 -60.0574 153° Southeast  Level FlightAware Approximate
03:07AM 1.5038 -59.9950 153° Southeast  Level FlightAware Approximate
03:08AM 1.3815 -59.9325 153° Southeast  Level FlightAware Approximate
03:09AM 1.2592 -59.8701 153° Southeast  Level FlightAware Approximate
03:10AM 1.1370 -59.8077 153° Southeast  Level FlightAware Approximate
03:11AM 1.0147 -59.7452 153° Southeast  Level FlightAware Approximate
03:12AM 0.8924 -59.6828 153° Southeast  Level FlightAware Approximate
03:13AM 0.7701 -59.6204 153° Southeast  Level FlightAware Approximate
03:14AM 0.6478 -59.5580 153° Southeast  Level FlightAware Approximate
03:15AM 0.5256 -59.4956 153° Southeast  Level FlightAware Approximate
03:16AM 0.4033 -59.4332 153° Southeast  Level FlightAware Approximate
03:17AM 0.2810 -59.3708 153° Southeast  Level FlightAware Approximate
03:18AM 0.1587 -59.3083 153° Southeast  Level FlightAware Approximate
03:19AM 0.0364 -59.2459 153° Southeast  Level FlightAware Approximate
03:20AM -0.0858 -59.1835 153° Southeast  Level FlightAware Approximate
03:21AM -0.2081 -59.1211 153° Southeast  Level FlightAware Approximate
03:22AM -0.3304 -59.0587 153° Southeast  Level FlightAware Approximate
03:23AM -0.4527 -58.9963 153° Southeast  Level FlightAware Approximate
03:24AM -0.5749 -58.9339 153° Southeast  Level FlightAware Approximate
03:25AM -0.6972 -58.8715 153° Southeast  Level FlightAware Approximate
03:26AM -0.8195 -58.8091 153° Southeast  Level FlightAware Approximate
03:27AM -0.9418 -58.7466 153° Southeast  Level FlightAware Approximate
03:28AM -1.0641 -58.6842 153° Southeast  Level FlightAware Approximate
03:29AM -1.1863 -58.6218 153° Southeast  Level FlightAware Approximate
03:30AM -1.3086 -58.5593 153° Southeast  Level FlightAware Approximate
03:31AM -1.4309 -58.4969 153° Southeast  Level FlightAware Approximate
03:32AM -1.5531 -58.4344 153° Southeast  Level FlightAware Approximate
03:33AM -1.6754 -58.3720 153° Southeast  Level FlightAware Approximate
03:34AM -1.7977 -58.3095 153° Southeast  Level FlightAware Approximate
03:35AM -1.9199 -58.2471 153° Southeast  Level FlightAware Approximate
03:36AM -2.0422 -58.1846 153° Southeast  Level FlightAware Approximate
03:37AM -2.1645 -58.1221 153° Southeast  Level FlightAware Approximate
03:38AM -2.2867 -58.0596 153° Southeast  Level FlightAware Approximate
03:39AM -2.4090 -57.9971 153° Southeast  Level FlightAware Approximate
03:40AM -2.5312 -57.9346 153° Southeast  Level FlightAware Approximate
03:41AM -2.6535 -57.8720 153° Southeast  Level FlightAware Approximate
03:42AM -2.7757 -57.8095 153° Southeast  Level FlightAware Approximate
03:43AM -2.8979 -57.7469 153° Southeast  Level FlightAware Approximate
03:44AM -3.0202 -57.6843 153° Southeast  Level FlightAware Approximate
03:45AM -3.1424 -57.6218 153° Southeast  Level FlightAware Approximate
03:46AM -3.2647 -57.5592 153° Southeast  Level FlightAware Approximate
03:47AM -3.3869 -57.4965 153° Southeast  Level FlightAware Approximate
03:48AM -3.5091 -57.4339 153° Southeast  Level FlightAware Approximate
03:49AM -3.6313 -57.3713 153° Southeast  Level FlightAware Approximate
03:50AM -3.7535 -57.3086 153° Southeast  Level FlightAware Approximate
03:51AM -3.8757 -57.2459 153° Southeast  Level FlightAware Approximate
03:52AM -3.9979 -57.1832 153° Southeast  Level FlightAware Approximate
03:53AM -4.1201 -57.1205 153° Southeast  Level FlightAware Approximate
03:54AM -4.2423 -57.0578 153° Southeast  Level FlightAware Approximate
03:55AM -4.3645 -56.9950 153° Southeast  Level FlightAware Approximate
03:56AM -4.4867 -56.9322 153° Southeast  Level FlightAware Approximate
03:57AM -4.6089 -56.8694 153° Southeast  Level FlightAware Approximate
03:58AM -4.7311 -56.8066 153° Southeast  Level FlightAware Approximate
03:59AM -4.8532 -56.7438 153° Southeast  Level FlightAware Approximate
04:00AM -4.9754 -56.6809 153° Southeast  Level FlightAware Approximate
04:01AM -5.0975 -56.6180 153° Southeast  Level FlightAware Approximate
04:02AM -5.2197 -56.5551 153° Southeast  Level FlightAware Approximate
04:03AM -5.3418 -56.4921 153° Southeast  Level FlightAware Approximate
04:04AM -5.4640 -56.4292 153° Southeast  Level FlightAware Approximate
04:05AM -5.5861 -56.3662 153° Southeast  Level FlightAware Approximate
04:06AM -5.7082 -56.3032 153° Southeast  Level FlightAware Approximate
04:07AM -5.8303 -56.2401 153° Southeast  Level FlightAware Approximate
04:08AM -5.9524 -56.1771 153° Southeast  Level FlightAware Approximate
04:09AM -6.0746 -56.1140 153° Southeast  Level FlightAware Approximate
04:10AM -6.1967 -56.0508 153° Southeast  Level FlightAware Approximate
04:11AM -6.3187 -55.9877 153° Southeast  Level FlightAware Approximate
04:12AM -6.4408 -55.9245 153° Southeast  Level FlightAware Approximate
04:13AM -6.5629 -55.8613 153° Southeast  Level FlightAware Approximate
04:14AM -6.6849 -55.7980 153° Southeast  Level FlightAware Approximate
04:15AM -6.8070 -55.7347 153° Southeast  Level FlightAware Approximate
04:16AM -6.9291 -55.6714 153° Southeast  Level FlightAware Approximate
04:17AM -7.0511 -55.6081 153° Southeast  Level FlightAware Approximate
04:18AM -7.1731 -55.5447 153° Southeast  Level FlightAware Approximate
04:19AM -7.2951 -55.4813 153° Southeast  Level FlightAware Approximate
04:20AM -7.4172 -55.4178 153° Southeast  Level FlightAware Approximate
04:21AM -7.5392 -55.3544 153° Southeast  Level FlightAware Approximate
04:22AM -7.6612 -55.2908 153° Southeast  Level FlightAware Approximate
04:23AM -7.7832 -55.2273 153° Southeast  Level FlightAware Approximate
04:24AM -7.9051 -55.1637 153° Southeast  Level FlightAware Approximate
04:25AM -8.0271 -55.1001 153° Southeast  Level FlightAware Approximate
04:26AM -8.1491 -55.0364 153° Southeast  Level FlightAware Approximate
04:27AM -8.2710 -54.9727 153° Southeast  Level FlightAware Approximate
04:28AM -8.3930 -54.9090 153° Southeast  Level FlightAware Approximate
04:29AM -8.5149 -54.8452 153° Southeast  Level FlightAware Approximate
04:30AM -8.6368 -54.7813 153° Southeast  Level FlightAware Approximate
04:31AM -8.7587 -54.7175 153° Southeast  Level FlightAware Approximate
04:32AM -8.8806 -54.6536 153° Southeast  Level FlightAware Approximate
04:33AM -9.0025 -54.5896 153° Southeast  Level FlightAware Approximate
04:34AM -9.1244 -54.5256 153° Southeast  Level FlightAware Approximate
04:35AM -9.2462 -54.4616 153° Southeast  Level FlightAware Approximate
04:36AM -9.3681 -54.3975 153° Southeast  Level FlightAware Approximate
04:37AM -9.4899 -54.3334 153° Southeast  Level FlightAware Approximate
04:38AM -9.6117 -54.2692 153° Southeast  Level FlightAware Approximate
04:39AM -9.7336 -54.2050 153° Southeast  Level FlightAware Approximate
04:40AM -9.8554 -54.1407 153° Southeast  Level FlightAware Approximate
04:41AM -9.9772 -54.0764 153° Southeast  Level FlightAware Approximate
04:42AM -10.0989 -54.0121 153° Southeast  Level FlightAware Approximate
04:43AM -10.2207 -53.9476 153° Southeast  Level FlightAware Approximate
04:44AM -10.3425 -53.8832 152° Southeast  Level FlightAware Approximate
04:45AM -10.4642 -53.8187 152° Southeast  Level FlightAware Approximate
04:46AM -10.5859 -53.7541 152° Southeast  Level FlightAware Approximate
04:47AM -10.7077 -53.6895 152° Southeast  Level FlightAware Approximate
04:48AM -10.8294 -53.6248 152° Southeast  Level FlightAware Approximate
04:49AM -10.9510 -53.5601 152° Southeast  Level FlightAware Approximate
04:50AM -11.0727 -53.4953 152° Southeast  Level FlightAware Approximate
04:51AM -11.1944 -53.4305 152° Southeast  Level FlightAware Approximate
04:52AM -11.3160 -53.3657 152° Southeast  Level FlightAware Approximate
04:53AM -11.4377 -53.3007 152° Southeast  Level FlightAware Approximate
04:54AM -11.5593 -53.2357 152° Southeast  Level FlightAware Approximate
04:55AM -11.6809 -53.1707 152° Southeast  Level FlightAware Approximate
04:56AM -11.8025 -53.1056 152° Southeast  Level FlightAware Approximate
04:57AM -11.9241 -53.0404 152° Southeast  Level FlightAware Approximate
04:58AM -12.0456 -52.9752 152° Southeast  Level FlightAware Approximate
04:59AM -12.1671 -52.9099 152° Southeast  Level FlightAware Approximate
05:00AM -12.2887 -52.8446 152° Southeast  Level FlightAware Approximate
05:01AM -12.4102 -52.7792 152° Southeast  Level FlightAware Approximate
05:02AM -12.5317 -52.7137 152° Southeast  Level FlightAware Approximate
05:03AM -12.6532 -52.6482 152° Southeast  Level FlightAware Approximate
05:04AM -12.7746 -52.5826 152° Southeast  Level FlightAware Approximate
05:05AM -12.8961 -52.5170 152° Southeast  Level FlightAware Approximate
05:06AM -13.0175 -52.4513 152° Southeast  Level FlightAware Approximate
05:07AM -13.1389 -52.3855 152° Southeast  Level FlightAware Approximate
05:08AM -13.2603 -52.3197 152° Southeast  Level FlightAware Approximate
05:09AM -13.3817 -52.2538 152° Southeast  Level FlightAware Approximate
05:10AM -13.5031 -52.1878 152° Southeast  Level FlightAware Approximate
05:11AM -13.6244 -52.1217 152° Southeast  Level FlightAware Approximate
05:12AM -13.7458 -52.0556 152° Southeast  Level FlightAware Approximate
05:13AM -13.8671 -51.9895 152° Southeast  Level FlightAware Approximate
05:14AM -13.9884 -51.9232 152° Southeast  Level FlightAware Approximate
05:15AM -14.1097 -51.8569 152° Southeast  Level FlightAware Approximate
05:16AM -14.2309 -51.7905 152° Southeast  Level FlightAware Approximate
05:17AM -14.3522 -51.7241 152° Southeast  Level FlightAware Approximate
05:18AM -14.4734 -51.6576 152° Southeast  Level FlightAware Approximate
05:19AM -14.5946 -51.5910 152° Southeast  Level FlightAware Approximate
05:20AM -14.7158 -51.5243 152° Southeast  Level FlightAware Approximate
05:21AM -14.8369 -51.4575 152° Southeast  Level FlightAware Approximate
05:22AM -14.9581 -51.3907 152° Southeast  Level FlightAware Approximate
05:23AM -15.0792 -51.3238 152° Southeast  Level FlightAware Approximate
05:24AM -15.2003 -51.2568 152° Southeast  Level FlightAware Approximate
05:25AM -15.3214 -51.1898 152° Southeast  Level FlightAware Approximate
05:26AM -15.4425 -51.1227 152° Southeast  Level FlightAware Approximate
05:27AM -15.5635 -51.0555 152° Southeast  Level FlightAware Approximate
05:28AM -15.6846 -50.9882 152° Southeast  Level FlightAware Approximate
05:29AM -15.8056 -50.9208 152° Southeast  Level FlightAware Approximate
05:30AM -15.9266 -50.8533 152° Southeast  Level FlightAware Approximate
05:31AM -16.0475 -50.7858 152° Southeast  Level FlightAware Approximate
05:32AM -16.1685 -50.7182 152° Southeast  Level FlightAware Approximate
05:33AM -16.2894 -50.6505 152° Southeast  Level FlightAware Approximate
05:34AM -16.4103 -50.5827 152° Southeast  Level FlightAware Approximate
05:35AM -16.5312 -50.5149 152° Southeast  Level FlightAware Approximate
05:36AM -16.6520 -50.4469 152° Southeast  Level FlightAware Approximate
05:37AM -16.7729 -50.3789 152° Southeast  Level FlightAware Approximate
05:37AM -19.3390 -49.3100 152° Southeast 39,000  Level FlightAware
05:37AM -19.3800 -49.2870 152° Southeast 512 589 39,000  Level FlightAware
05:38AM -19.4710 -49.2360 152° Southeast 512 589 39,000  Level FlightAware
05:38AM -19.5270 -49.2060 153° Southeast 513 590 39,000  Level FlightAware
05:39AM -19.6350 -49.1460 152° Southeast 514 592 39,000  Level FlightAware
05:40AM -19.7350 -49.0910 153° Southeast 513 590 39,000  Level FlightAware
05:41AM -19.8320 -49.0370 152° Southeast 513 590 39,000  Level FlightAware
05:41AM -19.9190 -48.9880 152° Southeast 513 590 39,000  Level FlightAware
05:42AM -20.0230 -48.9300 152° Southeast 511 588 39,000  Level FlightAware
05:43AM -20.1060 -48.8840 153° Southeast 510 587 39,000  Level FlightAware
05:44AM -20.1940 -48.8350 152° Southeast 509 586 39,000  Level FlightAware
05:44AM -20.2940 -48.7790 152° Southeast 509 586 39,000  Level FlightAware
05:45AM -20.3860 -48.7290 153° Southeast 508 585 39,000  Level FlightAware
05:46AM -20.4700 -48.6840 153° Southeast 508 585 39,000  Level FlightAware
05:46AM -20.5670 -48.6330 154° Southeast 508 585 39,000  Level FlightAware
05:47AM -20.6520 -48.5870 153° Southeast 508 585 39,000  Level FlightAware
05:48AM -20.7440 -48.5380 154° Southeast 507 583 39,000  Level FlightAware
05:49AM -20.8290 -48.4930 154° Southeast 507 583 39,000  Level FlightAware
05:49AM -20.9150 -48.4470 153° Southeast 508 585 39,000  Level FlightAware
05:50AM -21.0080 -48.3970 153° Southeast 509 586 39,000  Level FlightAware
05:51AM -21.0910 -48.3480 151° Southeast 517 595 39,000  Level FlightAware
05:51AM -21.1640 -48.2800 139° Southeast 528 608 39,000  Level FlightAware
05:52AM -21.2420 -48.1930 134° Southeast 529 609 39,000  Level FlightAware
05:53AM -21.3100 -48.1190 135° Southeast 524 603 39,000  Level FlightAware
05:53AM -21.3930 -48.0490 142° Southeast 523 602 39,000  Level FlightAware
05:54AM -21.4710 -47.9870 144° Southeast 521 600 39,000  Level FlightAware
05:55AM -21.5500 -47.9270 145° Southeast 523 602 39,000 -120 Level FlightAware
05:56AM -21.6390 -47.8560 143° Southeast 520 598 38,900 -1,080 Descending FlightAware
05:56AM -21.7160 -47.7940 143° Southeast 515 593 37,500 -2,520 Descending FlightAware
05:57AM -21.8010 -47.7260 143° Southeast 519 597 35,400 -2,880 Descending FlightAware
05:58AM -21.8770 -47.6640 143° Southeast 523 602 33,500 -2,520 Descending FlightAware
05:58AM -21.9650 -47.5930 143° Southeast 512 589 31,900 -2,160 Descending FlightAware
05:59AM -22.0380 -47.5340 143° Southeast 502 578 30,500 -2,220 Descending FlightAware
06:00AM -22.1140 -47.4720 143° Southeast 490 564 29,000 -2,100 Descending FlightAware
06:00AM -22.1810 -47.4190 144° Southeast 476 548 27,700 -1,980 Descending FlightAware
06:01AM -22.2620 -47.3530 143° Southeast 453 521 26,200 -1,980 Descending FlightAware
06:02AM -22.3300 -47.2980 143° Southeast 435 501 24,800 -1,860 Descending FlightAware
06:03AM -22.3940 -47.2470 144° Southeast 427 491 23,600 -1,800 Descending FlightAware
06:03AM -22.4580 -47.1940 143° Southeast 429 494 22,400 -1,860 Descending FlightAware
06:04AM -22.5250 -47.1400 143° Southeast 427 491 21,000 -1,860 Descending FlightAware
06:05AM -22.5910 -47.0930 147° Southeast 416 479 19,800 -1,800 Descending FlightAware
06:05AM -22.6680 -47.0590 158° South 402 463 18,500 -1,800 Descending FlightAware
06:06AM -22.7370 -47.0300 159° South 388 447 17,300 -1,740 Descending FlightAware
06:07AM -22.8040 -47.0020 159° South 362 417 16,200 -1,560 Descending FlightAware
06:07AM -22.8720 -46.9740 159° South 354 407 15,100 -1,800 Descending FlightAware
06:08AM -22.9270 -46.9510 159° South 337 388 13,800 -1,920 Descending FlightAware
06:09AM -22.9980 -46.9210 159° South 265 305 12,400 -1,680 Descending FlightAware
06:10AM -23.0460 -46.9010 159° South 279 321 11,300 -1,440 Descending FlightAware
06:11AM -23.1480 -46.8580 159° South 258 297 9,300 -1,080 Descending FlightAware
06:13AM -23.3130 -46.7880 129° Southeast 258 297 7,300 -840 Descending FlightAware
06:14AM -23.3590 -46.5697 129° Southeast  Level Estimated
06:15AM -23.3930 -46.7430 153° Southeast 256 295 6,400  Level FlightAware
06:16AM -23.4530 -46.6790 136° Southeast 246 283 5,200 -900 Descending FlightAware
06:18AM -23.4321 -46.4695 84° East  Level Estimated
06:18AM -23.4540 -46.5430 84° East 148 170 3,300  Level FlightAware
06:21AM -23.4321 -46.4695 155° Southeast  Level Estimated